sensor_id;sensor_type;location;lat;lon;timestamp;pressure;altitude;pressure_sealevel;temperature;humidity
70976;BME280;58635;51.198;6.010;2023-03-15T00:01:38;101065.66;;;8.47;55.79
70976;BME280;58635;51.198;6.010;2023-03-15T00:04:03;101058.88;;;8.46;56.12
70976;BME280;58635;51.198;6.010;2023-03-15T00:06:33;101068.22;;;8.47;56.25
70976;BME280;58635;51.198;6.010;2023-03-15T00:08:59;101065.47;;;8.49;56.17
70976;BME280;58635;51.198;6.010;2023-03-15T00:11:26;101064.50;;;8.50;56.20
70976;BME280;58635;51.198;6.010;2023-03-15T00:13:53;101065.13;;;8.52;56.22
70976;BME280;58635;51.198;6.010;2023-03-15T00:16:18;101075.44;;;8.52;56.13
70976;BME280;58635;51.198;6.010;2023-03-15T00:18:45;101080.75;;;8.50;56.07
70976;BME280;58635;51.198;6.010;2023-03-15T00:21:11;101079.69;;;8.45;56.47
70976;BME280;58635;51.198;6.010;2023-03-15T00:23:37;101086.00;;;8.42;56.48
70976;BME280;58635;51.198;6.010;2023-03-15T00:26:03;101091.94;;;8.43;56.66
70976;BME280;58635;51.198;6.010;2023-03-15T00:28:28;101108.22;;;8.43;56.61
70976;BME280;58635;51.198;6.010;2023-03-15T00:31:18;101096.13;;;8.44;56.94
70976;BME280;58635;51.198;6.010;2023-03-15T00:33:44;101088.88;;;8.39;56.93
70976;BME280;58635;51.198;6.010;2023-03-15T00:36:10;101091.63;;;8.38;57.08
70976;BME280;58635;51.198;6.010;2023-03-15T00:38:38;101088.88;;;8.39;56.92
70976;BME280;58635;51.198;6.010;2023-03-15T00:41:09;101087.91;;;8.40;57.08
70976;BME280;58635;51.198;6.010;2023-03-15T00:43:34;101096.78;;;8.38;57.16
70976;BME280;58635;51.198;6.010;2023-03-15T00:46:00;101093.91;;;8.33;57.25
70976;BME280;58635;51.198;6.010;2023-03-15T00:48:26;101093.91;;;8.33;57.01
70976;BME280;58635;51.198;6.010;2023-03-15T00:51:07;101092.00;;;8.35;57.13
70976;BME280;58635;51.198;6.010;2023-03-15T00:53:34;101102.63;;;8.32;57.46
70976;BME280;58635;51.198;6.010;2023-03-15T00:56:05;101098.25;;;8.32;57.06
70976;BME280;58635;51.198;6.010;2023-03-15T00:58:31;101102.63;;;8.32;57.44
70976;BME280;58635;51.198;6.010;2023-03-15T01:00:56;101107.28;;;8.28;57.63
70976;BME280;58635;51.198;6.010;2023-03-15T01:03:22;101106.84;;;8.25;57.51
70976;BME280;58635;51.198;6.010;2023-03-15T01:05:47;101112.16;;;8.23;57.67
70976;BME280;58635;51.198;6.010;2023-03-15T01:08:12;101104.78;;;8.20;57.68
70976;BME280;58635;51.198;6.010;2023-03-15T01:10:38;101109.31;;;8.18;57.87
70976;BME280;58635;51.198;6.010;2023-03-15T01:13:03;101119.44;;;8.19;58.11
70976;BME280;58635;51.198;6.010;2023-03-15T01:15:28;101108.97;;;8.21;58.01
70976;BME280;58635;51.198;6.010;2023-03-15T01:17:54;101113.47;;;8.19;57.87
70976;BME280;58635;51.198;6.010;2023-03-15T01:20:21;101109.00;;;8.13;57.99
70976;BME280;58635;51.198;6.010;2023-03-15T01:22:46;101113.34;;;8.12;57.92
70976;BME280;58635;51.198;6.010;2023-03-15T01:25:11;101109.34;;;8.10;57.97
70976;BME280;58635;51.198;6.010;2023-03-15T01:27:37;101112.88;;;8.09;58.12
70976;BME280;58635;51.198;6.010;2023-03-15T01:30:03;101113.88;;;8.00;58.15
70976;BME280;58635;51.198;6.010;2023-03-15T01:32:29;101119.88;;;7.92;58.56
70976;BME280;58635;51.198;6.010;2023-03-15T01:34:54;101115.84;;;7.89;58.69
70976;BME280;58635;51.198;6.010;2023-03-15T01:37:20;101119.06;;;7.91;58.59
70976;BME280;58635;51.198;6.010;2023-03-15T01:39:49;101124.22;;;7.91;58.59
70976;BME280;58635;51.198;6.010;2023-03-15T01:42:14;101117.28;;;7.92;58.65
70976;BME280;58635;51.198;6.010;2023-03-15T01:44:57;101124.22;;;7.91;58.47
70976;BME280;58635;51.198;6.010;2023-03-15T01:47:26;101124.56;;;7.88;58.58
70976;BME280;58635;51.198;6.010;2023-03-15T01:49:57;101123.75;;;7.88;58.76
70976;BME280;58635;51.198;6.010;2023-03-15T01:52:29;101124.09;;;7.85;58.58
70976;BME280;58635;51.198;6.010;2023-03-15T01:55:00;101124.13;;;7.77;58.83
70976;BME280;58635;51.198;6.010;2023-03-15T01:57:33;101114.63;;;7.69;59.04
70976;BME280;58635;51.198;6.010;2023-03-15T02:00:06;101123.34;;;7.68;58.96
70976;BME280;58635;51.198;6.010;2023-03-15T02:02:35;101119.97;;;7.68;59.21
70976;BME280;58635;51.198;6.010;2023-03-15T02:05:06;101120.13;;;7.66;59.21
70976;BME280;58635;51.198;6.010;2023-03-15T02:07:36;101120.47;;;7.63;59.25
70976;BME280;58635;51.198;6.010;2023-03-15T02:10:09;101118.53;;;7.65;59.41
70976;BME280;58635;51.198;6.010;2023-03-15T02:12:40;101123.50;;;7.67;59.39
70976;BME280;58635;51.198;6.010;2023-03-15T02:15:07;101120.13;;;7.66;59.37
70976;BME280;58635;51.198;6.010;2023-03-15T02:17:37;101127.84;;;7.66;59.36
70976;BME280;58635;51.198;6.010;2023-03-15T02:20:07;101136.88;;;7.62;59.31
70976;BME280;58635;51.198;6.010;2023-03-15T02:26:04;101140.25;;;7.54;59.43
70976;BME280;58635;51.198;6.010;2023-03-15T02:28:12;101130.47;;;7.58;59.40
70976;BME280;58635;51.198;6.010;2023-03-15T02:30:39;101127.38;;;7.62;59.44
70976;BME280;58635;51.198;6.010;2023-03-15T02:33:10;101129.44;;;7.67;59.34
70976;BME280;58635;51.198;6.010;2023-03-15T02:35:38;101129.28;;;7.69;59.17
70976;BME280;58635;51.198;6.010;2023-03-15T02:38:03;101139.13;;;7.65;59.41
70976;BME280;58635;51.198;6.010;2023-03-15T02:40:29;101137.19;;;7.67;59.23
70976;BME280;58635;51.198;6.010;2023-03-15T02:42:58;101141.34;;;7.68;59.08
70976;BME280;58635;51.198;6.010;2023-03-15T02:45:26;101134.59;;;7.67;59.23
70976;BME280;58635;51.198;6.010;2023-03-15T02:47:51;101136.38;;;7.67;59.19
70976;BME280;58635;51.198;6.010;2023-03-15T02:50:17;101141.34;;;7.68;59.53
70976;BME280;58635;51.198;6.010;2023-03-15T02:52:43;101140.56;;;7.68;59.36
70976;BME280;58635;51.198;6.010;2023-03-15T02:55:09;101143.28;;;7.66;59.28
70976;BME280;58635;51.198;6.010;2023-03-15T02:57:36;101150.03;;;7.67;59.14
70976;BME280;58635;51.198;6.010;2023-03-15T03:00:02;101158.41;;;7.69;59.35
70976;BME280;58635;51.198;6.010;2023-03-15T03:02:41;101157.59;;;7.69;59.47
70976;BME280;58635;51.198;6.010;2023-03-15T03:05:08;101164.22;;;7.63;59.62
70976;BME280;58635;51.198;6.010;2023-03-15T03:07:34;101165.84;;;7.64;59.66
70976;BME280;58635;51.198;6.010;2023-03-15T03:09:59;101169.03;;;7.66;59.36
70976;BME280;58635;51.198;6.010;2023-03-15T03:12:25;101169.22;;;7.65;59.35
70976;BME280;58635;51.198;6.010;2023-03-15T03:14:50;101177.09;;;7.63;59.62
70976;BME280;58635;51.198;6.010;2023-03-15T03:17:16;101188.38;;;7.62;59.46
70976;BME280;58635;51.198;6.010;2023-03-15T03:19:41;101191.91;;;7.61;59.54
70976;BME280;58635;51.198;6.010;2023-03-15T03:22:07;101201.25;;;7.62;59.33
70976;BME280;58635;51.198;6.010;2023-03-15T03:24:32;101210.72;;;7.61;59.26
70976;BME280;58635;51.198;6.010;2023-03-15T03:26:58;101214.28;;;7.60;59.16
70976;BME280;58635;51.198;6.010;2023-03-15T03:29:25;101207.03;;;7.56;59.23
70976;BME280;58635;51.198;6.010;2023-03-15T03:31:50;101220.41;;;7.51;59.19
70976;BME280;58635;51.198;6.010;2023-03-15T03:34:15;101225.06;;;7.48;59.05
70976;BME280;58635;51.198;6.010;2023-03-15T03:36:42;101228.91;;;7.44;59.00
70976;BME280;58635;51.198;6.010;2023-03-15T03:39:08;101233.25;;;7.43;58.96
70976;BME280;58635;51.198;6.010;2023-03-15T03:41:34;101230.22;;;7.40;59.55
70976;BME280;58635;51.198;6.010;2023-03-15T03:44:00;101242.28;;;7.39;59.21
70976;BME280;58635;51.198;6.010;2023-03-15T03:46:26;101249.34;;;7.37;59.21
70976;BME280;58635;51.198;6.010;2023-03-15T03:48:53;101253.06;;;7.35;59.55
70976;BME280;58635;51.198;6.010;2023-03-15T03:51:18;101245.81;;;7.30;59.54
70976;BME280;58635;51.198;6.010;2023-03-15T03:53:44;101247.56;;;7.29;59.89
70976;BME280;58635;51.198;6.010;2023-03-15T03:56:09;101247.75;;;7.28;59.70
70976;BME280;58635;51.198;6.010;2023-03-15T03:58:35;101255.28;;;7.29;59.93
70976;BME280;58635;51.198;6.010;2023-03-15T04:01:00;101252.88;;;7.28;59.74
70976;BME280;58635;51.198;6.010;2023-03-15T04:03:25;101256.41;;;7.27;59.92
70976;BME280;58635;51.198;6.010;2023-03-15T04:05:55;101257.22;;;7.27;59.88
70976;BME280;58635;51.198;6.010;2023-03-15T04:08:22;101258.84;;;7.28;60.22
70976;BME280;58635;51.198;6.010;2023-03-15T04:10:50;101262.03;;;7.30;59.91
70976;BME280;58635;51.198;6.010;2023-03-15T04:13:15;101262.84;;;7.31;59.81
70976;BME280;58635;51.198;6.010;2023-03-15T04:15:41;101261.06;;;7.31;59.78
70976;BME280;58635;51.198;6.010;2023-03-15T04:18:06;101258.34;;;7.33;60.07
70976;BME280;58635;51.198;6.010;2023-03-15T04:20:31;101262.56;;;7.34;60.03
70976;BME280;58635;51.198;6.010;2023-03-15T04:23:00;101254.66;;;7.36;60.25
70976;BME280;58635;51.198;6.010;2023-03-15T04:25:26;101257.53;;;7.32;60.00
70976;BME280;58635;51.198;6.010;2023-03-15T04:27:52;101261.88;;;7.32;60.25
70976;BME280;58635;51.198;6.010;2023-03-15T04:30:33;101271.53;;;7.30;60.25
70976;BME280;58635;51.198;6.010;2023-03-15T04:32:58;101265.09;;;7.26;60.46
70976;BME280;58635;51.198;6.010;2023-03-15T04:35:31;101274.09;;;7.22;60.37
70976;BME280;58635;51.198;6.010;2023-03-15T04:37:57;101280.38;;;7.19;60.27
70976;BME280;58635;51.198;6.010;2023-03-15T04:40:23;101282.78;;;7.21;60.59
70976;BME280;58635;51.198;6.010;2023-03-15T04:42:54;101280.38;;;7.19;60.50
70976;BME280;58635;51.198;6.010;2023-03-15T04:45:23;101279.56;;;7.19;60.48
70976;BME280;58635;51.198;6.010;2023-03-15T04:47:50;101285.84;;;7.16;60.58
70976;BME280;58635;51.198;6.010;2023-03-15T04:50:15;101286.00;;;7.15;60.58
70976;BME280;58635;51.198;6.010;2023-03-15T04:52:41;101290.19;;;7.16;60.64
70976;BME280;58635;51.198;6.010;2023-03-15T04:55:07;101286.63;;;7.17;60.66
70976;BME280;58635;51.198;6.010;2023-03-15T04:57:33;101294.19;;;7.18;60.61
70976;BME280;58635;51.198;6.010;2023-03-15T04:59:58;101299.50;;;7.17;60.61
70976;BME280;58635;51.198;6.010;2023-03-15T05:02:24;101301.25;;;7.16;60.95
70976;BME280;58635;51.198;6.010;2023-03-15T05:04:49;101305.44;;;7.17;61.02
70976;BME280;58635;51.198;6.010;2023-03-15T05:07:15;101312.03;;;7.20;60.86
70976;BME280;58635;51.198;6.010;2023-03-15T05:09:40;101315.41;;;7.20;60.53
70976;BME280;58635;51.198;6.010;2023-03-15T05:12:06;101307.69;;;7.20;60.82
70976;BME280;58635;51.198;6.010;2023-03-15T05:14:32;101322.97;;;7.22;60.82
70976;BME280;58635;51.198;6.010;2023-03-15T05:16:58;101323.81;;;7.22;60.91
70976;BME280;58635;51.198;6.010;2023-03-15T05:19:27;101323.63;;;7.24;60.91
70976;BME280;58635;51.198;6.010;2023-03-15T05:21:53;101328.94;;;7.22;60.89
70976;BME280;58635;51.198;6.010;2023-03-15T05:24:21;101335.84;;;7.22;60.90
70976;BME280;58635;51.198;6.010;2023-03-15T05:26:46;101338.41;;;7.22;60.79
70976;BME280;58635;51.198;6.010;2023-03-15T05:29:12;101346.97;;;7.22;60.73
70976;BME280;58635;51.198;6.010;2023-03-15T05:31:38;101346.28;;;7.20;60.95
70976;BME280;58635;51.198;6.010;2023-03-15T05:34:05;101349.66;;;7.21;60.82
70976;BME280;58635;51.198;6.010;2023-03-15T05:36:31;101354.81;;;7.21;60.97
70976;BME280;58635;51.198;6.010;2023-03-15T05:38:56;101354.00;;;7.20;60.74
70976;BME280;58635;51.198;6.010;2023-03-15T05:41:22;101363.50;;;7.20;60.81
70976;BME280;58635;51.198;6.010;2023-03-15T05:43:48;101372.16;;;7.19;60.82
70976;BME280;58635;51.198;6.010;2023-03-15T05:46:14;101368.78;;;7.18;61.05
70976;BME280;58635;51.198;6.010;2023-03-15T05:48:39;101368.94;;;7.17;60.76
70976;BME280;58635;51.198;6.010;2023-03-15T05:51:04;101370.72;;;7.16;60.80
70976;BME280;58635;51.198;6.010;2023-03-15T05:53:30;101377.63;;;7.16;60.78
70976;BME280;58635;51.198;6.010;2023-03-15T05:55:55;101376.84;;;7.15;60.89
70976;BME280;58635;51.198;6.010;2023-03-15T05:58:21;101376.84;;;7.15;60.89
70976;BME280;58635;51.198;6.010;2023-03-15T06:00:46;101374.41;;;7.14;60.98
70976;BME280;58635;51.198;6.010;2023-03-15T06:03:13;101377.78;;;7.14;60.99
70976;BME280;58635;51.198;6.010;2023-03-15T06:05:39;101380.53;;;7.13;60.84
70976;BME280;58635;51.198;6.010;2023-03-15T06:08:05;101383.09;;;7.13;61.01
70976;BME280;58635;51.198;6.010;2023-03-15T06:10:30;101390.16;;;7.11;60.92
70976;BME280;58635;51.198;6.010;2023-03-15T06:12:56;101397.88;;;7.11;60.88
70976;BME280;58635;51.198;6.010;2023-03-15T06:15:21;101400.47;;;7.11;60.83
70976;BME280;58635;51.198;6.010;2023-03-15T06:17:46;101407.34;;;7.10;61.19
70976;BME280;58635;51.198;6.010;2023-03-15T06:20:12;101411.41;;;7.13;61.33
70976;BME280;58635;51.198;6.010;2023-03-15T06:22:38;101408.03;;;7.12;61.21
70976;BME280;58635;51.198;6.010;2023-03-15T06:25:04;101412.38;;;7.12;60.85
70976;BME280;58635;51.198;6.010;2023-03-15T06:27:29;101410.59;;;7.12;61.19
70976;BME280;58635;51.198;6.010;2023-03-15T06:29:55;101419.91;;;7.13;61.17
70976;BME280;58635;51.198;6.010;2023-03-15T06:32:21;101422.19;;;7.16;60.98
70976;BME280;58635;51.198;6.010;2023-03-15T06:34:47;101412.53;;;7.18;61.06
70976;BME280;58635;51.198;6.010;2023-03-15T06:37:12;101415.59;;;7.22;60.89
70976;BME280;58635;51.198;6.010;2023-03-15T06:39:38;101423.66;;;7.27;61.15
70976;BME280;58635;51.198;6.010;2023-03-15T06:42:05;101429.28;;;7.30;61.05
70976;BME280;58635;51.198;6.010;2023-03-15T06:44:33;101440.09;;;7.34;60.83
70976;BME280;58635;51.198;6.010;2023-03-15T06:46:59;101442.34;;;7.37;61.01
70976;BME280;58635;51.198;6.010;2023-03-15T06:49:25;101447.03;;;7.42;60.89
70976;BME280;58635;51.198;6.010;2023-03-15T06:51:50;101453.34;;;7.47;60.86
70976;BME280;58635;51.198;6.010;2023-03-15T06:54:16;101458.81;;;7.52;60.77
70976;BME280;58635;51.198;6.010;2023-03-15T06:56:41;101464.28;;;7.57;60.52
70976;BME280;58635;51.198;6.010;2023-03-15T06:59:07;101469.63;;;7.64;60.57
70976;BME280;58635;51.198;6.010;2023-03-15T07:01:33;101474.16;;;7.70;60.47
70976;BME280;58635;51.198;6.010;2023-03-15T07:03:58;101488.00;;;7.77;60.28
70976;BME280;58635;51.198;6.010;2023-03-15T07:06:23;101489.94;;;7.83;60.23
70976;BME280;58635;51.198;6.010;2023-03-15T07:08:49;101491.06;;;7.89;60.23
70976;BME280;58635;51.198;6.010;2023-03-15T07:11:14;101492.22;;;7.95;60.13
70976;BME280;58635;51.198;6.010;2023-03-15T07:13:40;101499.47;;;7.99;60.17
70976;BME280;58635;51.198;6.010;2023-03-15T07:16:05;101502.69;;;8.01;60.13
70976;BME280;58635;51.198;6.010;2023-03-15T07:18:32;101500.59;;;8.05;59.99
70976;BME280;58635;51.198;6.010;2023-03-15T07:21:02;101510.59;;;8.08;60.09
70976;BME280;58635;51.198;6.010;2023-03-15T07:23:29;101507.88;;;8.09;60.04
70976;BME280;58635;51.198;6.010;2023-03-15T07:25:55;101515.09;;;8.14;60.07
70976;BME280;58635;51.198;6.010;2023-03-15T07:28:22;101529.13;;;8.19;60.04
70976;BME280;58635;51.198;6.010;2023-03-15T07:30:52;101526.22;;;8.23;59.71
70976;BME280;58635;51.198;6.010;2023-03-15T07:33:17;101536.22;;;8.26;59.73
70976;BME280;58635;51.198;6.010;2023-03-15T07:35:46;101542.00;;;8.28;59.71
70976;BME280;58635;51.198;6.010;2023-03-15T07:38:12;101550.56;;;8.28;59.67
70976;BME280;58635;51.198;6.010;2023-03-15T07:40:37;101546.88;;;8.31;59.58
70976;BME280;58635;51.198;6.010;2023-03-15T07:43:02;101545.59;;;8.35;59.49
70976;BME280;58635;51.198;6.010;2023-03-15T07:45:28;101550.44;;;8.38;59.61
70976;BME280;58635;51.198;6.010;2023-03-15T07:47:53;101553.53;;;8.41;59.61
70976;BME280;58635;51.198;6.010;2023-03-15T07:50:19;101565.28;;;8.44;59.34
70976;BME280;58635;51.198;6.010;2023-03-15T07:52:44;101567.84;;;8.44;59.37
70976;BME280;58635;51.198;6.010;2023-03-15T07:55:10;101564.78;;;8.48;59.34
70976;BME280;58635;51.198;6.010;2023-03-15T07:57:35;101571.56;;;8.49;59.18
70976;BME280;58635;51.198;6.010;2023-03-15T08:00:01;101575.28;;;8.55;59.37
70976;BME280;58635;51.198;6.010;2023-03-15T08:02:26;101580.91;;;8.59;59.26
70976;BME280;58635;51.198;6.010;2023-03-15T08:04:52;101573.66;;;8.62;59.34
70976;BME280;58635;51.198;6.010;2023-03-15T08:07:18;101579.16;;;8.67;59.22
70976;BME280;58635;51.198;6.010;2023-03-15T08:09:43;101588.97;;;8.72;59.26
70976;BME280;58635;51.198;6.010;2023-03-15T08:12:09;101596.72;;;8.80;59.21
70976;BME280;58635;51.198;6.010;2023-03-15T08:14:34;101597.66;;;8.87;59.08
70976;BME280;58635;51.198;6.010;2023-03-15T08:17:01;101603.31;;;8.99;58.89
70976;BME280;58635;51.198;6.010;2023-03-15T08:19:26;101597.97;;;9.17;58.85
70976;BME280;58635;51.198;6.010;2023-03-15T08:21:52;101606.66;;;9.40;58.49
70976;BME280;58635;51.198;6.010;2023-03-15T08:24:18;101610.59;;;9.59;58.37
70976;BME280;58635;51.198;6.010;2023-03-15T08:26:46;101616.88;;;9.73;58.13
70976;BME280;58635;51.198;6.010;2023-03-15T08:29:11;101618.44;;;9.82;57.74
70976;BME280;58635;51.198;6.010;2023-03-15T08:31:37;101624.56;;;9.89;57.54
70976;BME280;58635;51.198;6.010;2023-03-15T08:34:02;101628.91;;;9.96;57.37
70976;BME280;58635;51.198;6.010;2023-03-15T08:36:28;101632.41;;;10.04;57.20
70976;BME280;58635;51.198;6.010;2023-03-15T08:38:54;101636.41;;;10.06;57.04
70976;BME280;58635;51.198;6.010;2023-03-15T08:41:19;101639.66;;;10.08;56.90
70976;BME280;58635;51.198;6.010;2023-03-15T08:43:44;101642.72;;;10.12;56.65
70976;BME280;58635;51.198;6.010;2023-03-15T08:46:10;101643.34;;;10.14;56.89
70976;BME280;58635;51.198;6.010;2023-03-15T08:48:36;101651.72;;;10.16;56.85
70976;BME280;58635;51.198;6.010;2023-03-15T08:51:04;101646.91;;;10.13;56.72
70976;BME280;58635;51.198;6.010;2023-03-15T08:53:30;101650.47;;;10.12;56.72
70976;BME280;58635;51.198;6.010;2023-03-15T08:55:56;101645.66;;;10.09;56.77
70976;BME280;58635;51.198;6.010;2023-03-15T08:58:22;101647.25;;;10.10;56.61
70976;BME280;58635;51.198;6.010;2023-03-15T09:00:48;101645.28;;;10.12;56.70
70976;BME280;58635;51.198;6.010;2023-03-15T09:03:14;101654.50;;;10.14;56.65
70976;BME280;58635;51.198;6.010;2023-03-15T09:05:40;101659.16;;;10.19;56.73
70976;BME280;58635;51.198;6.010;2023-03-15T09:08:06;101656.28;;;10.22;56.63
70976;BME280;58635;51.198;6.010;2023-03-15T09:10:31;101660.47;;;10.23;56.88
70976;BME280;58635;51.198;6.010;2023-03-15T09:12:58;101656.28;;;10.22;56.56
70976;BME280;58635;51.198;6.010;2023-03-15T09:15:24;101660.63;;;10.21;56.57
70976;BME280;58635;51.198;6.010;2023-03-15T09:17:50;101656.91;;;10.24;56.54
70976;BME280;58635;51.198;6.010;2023-03-15T09:20:18;101660.91;;;10.27;56.50
70976;BME280;58635;51.198;6.010;2023-03-15T09:22:52;101664.94;;;10.29;56.36
70976;BME280;58635;51.198;6.010;2023-03-15T09:25:18;101661.88;;;10.34;55.86
70976;BME280;58635;51.198;6.010;2023-03-15T09:27:44;101668.75;;;10.41;55.94
70976;BME280;58635;51.198;6.010;2023-03-15T09:30:10;101670.69;;;10.47;55.48
70976;BME280;58635;51.198;6.010;2023-03-15T09:32:36;101668.72;;;10.49;55.23
70976;BME280;58635;51.198;6.010;2023-03-15T09:35:06;101671.81;;;10.45;55.08
70976;BME280;58635;51.198;6.010;2023-03-15T09:37:33;101676.69;;;10.40;55.05
70976;BME280;58635;51.198;6.010;2023-03-15T09:39:59;101673.81;;;10.35;55.07
70976;BME280;58635;51.198;6.010;2023-03-15T09:45:13;101673.50;;;10.30;54.76
70976;BME280;58635;51.198;6.010;2023-03-15T09:47:53;101670.28;;;10.28;54.62
70976;BME280;58635;51.198;6.010;2023-03-15T09:50:34;101674.66;;;10.27;54.21
70976;BME280;58635;51.198;6.010;2023-03-15T09:55:47;101672.50;;;10.39;53.97
70976;BME280;58635;51.198;6.010;2023-03-15T09:58:30;101671.81;;;10.45;53.75
70976;BME280;58635;51.198;6.010;2023-03-15T10:01:12;101671.63;;;10.54;53.21
70976;BME280;58635;51.198;6.010;2023-03-15T10:03:52;101672.66;;;10.68;53.00
70976;BME280;58635;51.198;6.010;2023-03-15T10:06:30;101677.06;;;10.82;52.90
70976;BME280;58635;51.198;6.010;2023-03-15T10:09:03;101672.47;;;10.93;52.55
70976;BME280;58635;51.198;6.010;2023-03-15T10:11:44;101679.84;;;11.04;52.29
70976;BME280;58635;51.198;6.010;2023-03-15T10:14:40;101682.81;;;11.16;52.40
70976;BME280;58635;51.198;6.010;2023-03-15T10:17:14;101686.41;;;11.29;52.17
70976;BME280;58635;51.198;6.010;2023-03-15T10:19:50;101689.56;;;11.39;51.65
70976;BME280;58635;51.198;6.010;2023-03-15T10:22:24;101691.44;;;11.46;50.71
70976;BME280;58635;51.198;6.010;2023-03-15T10:25:10;101688.66;;;11.47;50.60
70976;BME280;58635;51.198;6.010;2023-03-15T10:27:41;101685.09;;;11.48;50.61
70976;BME280;58635;51.198;6.010;2023-03-15T10:30:17;101688.41;;;11.57;50.66
70976;BME280;58635;51.198;6.010;2023-03-15T10:32:45;101682.78;;;11.68;50.45
70976;BME280;58635;51.198;6.010;2023-03-15T10:35:16;101678.69;;;11.74;49.77
70976;BME280;58635;51.198;6.010;2023-03-15T10:37:42;101682.09;;;11.74;49.63
70976;BME280;58635;51.198;6.010;2023-03-15T10:40:08;101684.88;;;11.73;49.86
70976;BME280;58635;51.198;6.010;2023-03-15T10:42:41;101689.41;;;11.70;49.32
70976;BME280;58635;51.198;6.010;2023-03-15T10:45:20;101688.69;;;11.62;48.43
70976;BME280;58635;51.198;6.010;2023-03-15T10:47:46;101680.38;;;11.52;48.25
70976;BME280;58635;51.198;6.010;2023-03-15T10:50:25;101681.44;;;11.42;47.51
70976;BME280;58635;51.198;6.010;2023-03-15T10:52:54;101684.44;;;11.31;47.93
70976;BME280;58635;51.198;6.010;2023-03-15T10:55:35;101688.56;;;11.26;48.56
70976;BME280;58635;51.198;6.010;2023-03-15T10:58:19;101696.22;;;11.19;48.96
70976;BME280;58635;51.198;6.010;2023-03-15T11:00:53;101693.78;;;11.18;49.06
70976;BME280;58635;51.198;6.010;2023-03-15T11:03:23;101701.38;;;11.19;48.88
70976;BME280;58635;51.198;6.010;2023-03-15T11:05:54;101700.69;;;11.25;48.00
70976;BME280;58635;51.198;6.010;2023-03-15T11:08:35;101703.75;;;11.29;47.77
70976;BME280;58635;51.198;6.010;2023-03-15T11:11:02;101710.00;;;11.34;47.82
70976;BME280;58635;51.198;6.010;2023-03-15T11:13:29;101719.22;;;11.37;47.28
70976;BME280;58635;51.198;6.010;2023-03-15T11:16:18;101716.78;;;11.35;46.86
70976;BME280;58635;51.198;6.010;2023-03-15T11:18:56;101721.41;;;11.25;46.94
70976;BME280;58635;51.198;6.010;2023-03-15T11:21:25;101720.13;;;11.21;46.32
70976;BME280;58635;51.198;6.010;2023-03-15T11:23:55;101731.19;;;11.15;46.20
70976;BME280;58635;51.198;6.010;2023-03-15T11:26:24;101719.06;;;11.16;46.04
70976;BME280;58635;51.198;6.010;2023-03-15T11:28:53;101726.13;;;11.22;45.73
70976;BME280;58635;51.198;6.010;2023-03-15T11:31:20;101731.25;;;11.30;45.83
70976;BME280;58635;51.198;6.010;2023-03-15T11:36:29;101731.56;;;11.50;44.75
70976;BME280;58635;51.198;6.010;2023-03-15T11:38:58;101739.25;;;11.58;44.25
70976;BME280;58635;51.198;6.010;2023-03-15T11:41:39;101743.28;;;11.60;44.01
70976;BME280;58635;51.198;6.010;2023-03-15T11:46:38;101748.50;;;11.75;43.64
70976;BME280;58635;51.198;6.010;2023-03-15T11:49:16;101740.53;;;11.77;43.35
70976;BME280;58635;51.198;6.010;2023-03-15T11:51:43;101742.84;;;11.71;43.48
70976;BME280;58635;51.198;6.010;2023-03-15T11:54:13;101744.81;;;11.69;43.32
70976;BME280;58635;51.198;6.010;2023-03-15T11:59:13;101734.66;;;11.83;42.70
70976;BME280;58635;51.198;6.010;2023-03-15T12:09:38;101727.22;;;12.24;41.47
70976;BME280;58635;51.198;6.010;2023-03-15T12:25:37;101725.00;;;13.14;40.61
70976;BME280;58635;51.198;6.010;2023-03-15T12:28:19;101717.56;;;13.33;40.02
70976;BME280;58635;51.198;6.010;2023-03-15T12:30:53;101722.47;;;13.49;39.67
70976;BME280;58635;51.198;6.010;2023-03-15T12:33:20;101725.59;;;13.66;39.66
70976;BME280;58635;51.198;6.010;2023-03-15T12:35:47;101720.47;;;13.79;39.28
70976;BME280;58635;51.198;6.010;2023-03-15T12:38:21;101712.53;;;13.87;38.50
70976;BME280;58635;51.198;6.010;2023-03-15T12:40:57;101711.94;;;13.92;38.35
70976;BME280;58635;51.198;6.010;2023-03-15T12:43:37;101716.19;;;13.99;38.45
70976;BME280;58635;51.198;6.010;2023-03-15T12:46:04;101715.41;;;14.05;38.83
70976;BME280;58635;51.198;6.010;2023-03-15T12:48:30;101718.06;;;14.12;39.05
70976;BME280;58635;51.198;6.010;2023-03-15T12:50:58;101723.25;;;14.19;38.51
70976;BME280;58635;51.198;6.010;2023-03-15T12:56:29;101714.50;;;14.26;37.86
70976;BME280;58635;51.198;6.010;2023-03-15T12:59:16;101718.09;;;14.25;37.98
70976;BME280;58635;51.198;6.010;2023-03-15T13:01:43;101723.25;;;14.12;38.32
70976;BME280;58635;51.198;6.010;2023-03-15T13:04:10;101716.75;;;13.95;38.53
70976;BME280;58635;51.198;6.010;2023-03-15T13:06:48;101722.94;;;13.87;38.60
70976;BME280;58635;51.198;6.010;2023-03-15T13:12:11;101715.16;;;13.59;38.71
70976;BME280;58635;51.198;6.010;2023-03-15T13:17:42;101712.56;;;13.31;39.09
70976;BME280;58635;51.198;6.010;2023-03-15T13:23:12;101718.84;;;13.43;39.44
70976;BME280;58635;51.198;6.010;2023-03-15T13:28:47;101713.34;;;13.60;39.10
70976;BME280;58635;51.198;6.010;2023-03-15T13:33:46;101718.28;;;13.76;38.90
70976;BME280;58635;51.198;6.010;2023-03-15T13:36:15;101728.13;;;13.87;38.93
70976;BME280;58635;51.198;6.010;2023-03-15T13:41:24;101714.81;;;14.03;37.99
70976;BME280;58635;51.198;6.010;2023-03-15T13:43:53;101723.44;;;14.11;38.06
70976;BME280;58635;51.198;6.010;2023-03-15T13:46:21;101720.06;;;14.17;37.96
70976;BME280;58635;51.198;6.010;2023-03-15T13:48:52;101717.06;;;14.20;37.76
70976;BME280;58635;51.198;6.010;2023-03-15T13:51:30;101717.31;;;14.25;37.36
70976;BME280;58635;51.198;6.010;2023-03-15T13:54:06;101717.91;;;14.27;37.41
70976;BME280;58635;51.198;6.010;2023-03-15T13:56:35;101727.91;;;14.30;36.88
70976;BME280;58635;51.198;6.010;2023-03-15T13:59:02;101724.16;;;14.32;36.56
70976;BME280;58635;51.198;6.010;2023-03-15T14:01:30;101729.75;;;14.36;36.25